Ashtabula, Ohio
Current Conditions -  °F | °C
As of 1:53 PM on Monday 22 Dec 2014 (Local Time) from KHZY Reporting Station
Clear Clear  
Wind Chill: 35°   Ceiling: Unl
Heat Index: 41°   Visibility: 10mi
Dew Point: 30°   Wind: 9mph
Humidity: 65%   Direction: 140°SE
Pressure: 30.02"   Gusts: NA
Location:  41.89°N, 80.79°W
Report Text: KHZY 221853Z AUTO 14008KT 10SM CLR 05/M01 A3002 RMK AO2 SLP173 T00501011
Loading
Personal Weather Stations






























Interactive Weather Map New forecast layout! Learn more

10-Day Weather Forecast

Advertisements
Track Severe Weather on mobile